sensor_id;sensor_type;location;lat;lon;timestamp;P1;durP1;ratioP1;P2;durP2;ratioP2
78563;SDS011;67856;47.754;19.088;2023-04-07T00:01:09;3.25;;;2.58;;
78563;SDS011;67856;47.754;19.088;2023-04-07T00:04:11;3.75;;;2.65;;
78563;SDS011;67856;47.754;19.088;2023-04-07T00:07:14;4.03;;;2.90;;
78563;SDS011;67856;47.754;19.088;2023-04-07T00:10:16;3.63;;;2.70;;
78563;SDS011;67856;47.754;19.088;2023-04-07T00:13:19;3.90;;;2.80;;
78563;SDS011;67856;47.754;19.088;2023-04-07T00:16:21;4.25;;;2.80;;
78563;SDS011;67856;47.754;19.088;2023-04-07T00:19:24;3.97;;;2.70;;
78563;SDS011;67856;47.754;19.088;2023-04-07T00:22:26;4.35;;;2.95;;
78563;SDS011;67856;47.754;19.088;2023-04-07T00:25:29;3.07;;;2.27;;
78563;SDS011;67856;47.754;19.088;2023-04-07T00:28:31;3.77;;;2.57;;
78563;SDS011;67856;47.754;19.088;2023-04-07T00:31:34;3.67;;;2.80;;
78563;SDS011;67856;47.754;19.088;2023-04-07T00:34:36;4.45;;;2.80;;
78563;SDS011;67856;47.754;19.088;2023-04-07T00:37:39;3.90;;;2.90;;
78563;SDS011;67856;47.754;19.088;2023-04-07T00:40:41;4.13;;;2.50;;
78563;SDS011;67856;47.754;19.088;2023-04-07T00:43:43;3.37;;;2.47;;
78563;SDS011;67856;47.754;19.088;2023-04-07T00:46:46;5.28;;;3.20;;
78563;SDS011;67856;47.754;19.088;2023-04-07T00:49:49;4.63;;;3.10;;
78563;SDS011;67856;47.754;19.088;2023-04-07T00:52:52;3.22;;;2.42;;
78563;SDS011;67856;47.754;19.088;2023-04-07T00:55:55;4.47;;;2.77;;
78563;SDS011;67856;47.754;19.088;2023-04-07T00:58:58;4.53;;;2.97;;
78563;SDS011;67856;47.754;19.088;2023-04-07T01:02:10;4.63;;;2.92;;
78563;SDS011;67856;47.754;19.088;2023-04-07T01:05:20;4.20;;;3.20;;
78563;SDS011;67856;47.754;19.088;2023-04-07T01:11:57;4.27;;;3.10;;
78563;SDS011;67856;47.754;19.088;2023-04-07T01:15:09;4.00;;;2.73;;
78563;SDS011;67856;47.754;19.088;2023-04-07T01:18:23;4.75;;;3.15;;
78563;SDS011;67856;47.754;19.088;2023-04-07T01:21:28;3.17;;;2.30;;
78563;SDS011;67856;47.754;19.088;2023-04-07T01:24:51;4.75;;;3.08;;
78563;SDS011;67856;47.754;19.088;2023-04-07T01:31:40;4.53;;;2.77;;
78563;SDS011;67856;47.754;19.088;2023-04-07T01:34:43;3.50;;;2.58;;
78563;SDS011;67856;47.754;19.088;2023-04-07T01:37:46;3.60;;;2.35;;
78563;SDS011;67856;47.754;19.088;2023-04-07T01:40:50;3.78;;;2.65;;
78563;SDS011;67856;47.754;19.088;2023-04-07T01:43:53;3.83;;;2.60;;
78563;SDS011;67856;47.754;19.088;2023-04-07T01:46:58;4.30;;;2.70;;
78563;SDS011;67856;47.754;19.088;2023-04-07T01:50:01;4.68;;;3.10;;
78563;SDS011;67856;47.754;19.088;2023-04-07T01:53:06;4.43;;;2.92;;
78563;SDS011;67856;47.754;19.088;2023-04-07T01:56:09;5.00;;;3.13;;
78563;SDS011;67856;47.754;19.088;2023-04-07T01:59:11;4.23;;;3.10;;
78563;SDS011;67856;47.754;19.088;2023-04-07T02:02:14;3.20;;;2.53;;
78563;SDS011;67856;47.754;19.088;2023-04-07T02:05:18;4.22;;;2.97;;
78563;SDS011;67856;47.754;19.088;2023-04-07T02:08:22;4.10;;;2.75;;
78563;SDS011;67856;47.754;19.088;2023-04-07T02:11:25;4.13;;;2.67;;
78563;SDS011;67856;47.754;19.088;2023-04-07T02:14:32;4.13;;;2.73;;
78563;SDS011;67856;47.754;19.088;2023-04-07T02:17:40;3.77;;;2.60;;
78563;SDS011;67856;47.754;19.088;2023-04-07T02:20:44;4.35;;;2.90;;
78563;SDS011;67856;47.754;19.088;2023-04-07T02:23:47;4.03;;;2.50;;
78563;SDS011;67856;47.754;19.088;2023-04-07T02:26:49;3.20;;;2.47;;
78563;SDS011;67856;47.754;19.088;2023-04-07T02:29:52;4.77;;;3.37;;
78563;SDS011;67856;47.754;19.088;2023-04-07T02:32:57;3.93;;;2.90;;
78563;SDS011;67856;47.754;19.088;2023-04-07T02:36:00;4.07;;;2.60;;
78563;SDS011;67856;47.754;19.088;2023-04-07T02:39:02;4.10;;;2.95;;
78563;SDS011;67856;47.754;19.088;2023-04-07T02:42:05;3.90;;;2.92;;
78563;SDS011;67856;47.754;19.088;2023-04-07T02:45:08;3.80;;;2.70;;
78563;SDS011;67856;47.754;19.088;2023-04-07T02:48:11;3.57;;;2.30;;
78563;SDS011;67856;47.754;19.088;2023-04-07T02:51:13;4.30;;;2.92;;
78563;SDS011;67856;47.754;19.088;2023-04-07T02:54:16;3.78;;;2.30;;
78563;SDS011;67856;47.754;19.088;2023-04-07T02:57:19;3.65;;;2.60;;
78563;SDS011;67856;47.754;19.088;2023-04-07T03:00:22;3.80;;;2.87;;
78563;SDS011;67856;47.754;19.088;2023-04-07T03:03:35;4.20;;;2.97;;
78563;SDS011;67856;47.754;19.088;2023-04-07T03:06:51;4.00;;;2.65;;
78563;SDS011;67856;47.754;19.088;2023-04-07T03:09:54;4.97;;;3.25;;
78563;SDS011;67856;47.754;19.088;2023-04-07T03:12:56;3.80;;;2.80;;
78563;SDS011;67856;47.754;19.088;2023-04-07T03:15:59;3.90;;;2.57;;
78563;SDS011;67856;47.754;19.088;2023-04-07T03:19:07;3.70;;;2.40;;
78563;SDS011;67856;47.754;19.088;2023-04-07T03:22:14;4.32;;;2.80;;
78563;SDS011;67856;47.754;19.088;2023-04-07T03:25:22;4.47;;;3.30;;
78563;SDS011;67856;47.754;19.088;2023-04-07T03:28:26;4.55;;;3.08;;
78563;SDS011;67856;47.754;19.088;2023-04-07T03:31:28;3.73;;;2.80;;
78563;SDS011;67856;47.754;19.088;2023-04-07T03:34:32;4.60;;;2.80;;
78563;SDS011;67856;47.754;19.088;2023-04-07T03:37:34;3.90;;;2.58;;
78563;SDS011;67856;47.754;19.088;2023-04-07T03:40:39;3.67;;;2.75;;
78563;SDS011;67856;47.754;19.088;2023-04-07T03:43:41;4.18;;;2.85;;
78563;SDS011;67856;47.754;19.088;2023-04-07T03:46:45;4.53;;;3.00;;
78563;SDS011;67856;47.754;19.088;2023-04-07T03:49:50;4.60;;;3.00;;
78563;SDS011;67856;47.754;19.088;2023-04-07T03:52:55;4.15;;;3.10;;
78563;SDS011;67856;47.754;19.088;2023-04-07T03:56:00;3.60;;;2.60;;
78563;SDS011;67856;47.754;19.088;2023-04-07T03:59:32;3.30;;;2.70;;
78563;SDS011;67856;47.754;19.088;2023-04-07T04:02:38;3.87;;;2.80;;
78563;SDS011;67856;47.754;19.088;2023-04-07T04:05:43;3.93;;;2.53;;
78563;SDS011;67856;47.754;19.088;2023-04-07T04:08:51;5.78;;;3.35;;
78563;SDS011;67856;47.754;19.088;2023-04-07T04:11:54;4.28;;;2.53;;
78563;SDS011;67856;47.754;19.088;2023-04-07T04:14:58;3.33;;;2.20;;
78563;SDS011;67856;47.754;19.088;2023-04-07T04:18:01;3.43;;;2.10;;
78563;SDS011;67856;47.754;19.088;2023-04-07T04:21:05;3.10;;;2.27;;
78563;SDS011;67856;47.754;19.088;2023-04-07T04:24:11;2.97;;;2.10;;
78563;SDS011;67856;47.754;19.088;2023-04-07T04:27:14;2.53;;;2.00;;
78563;SDS011;67856;47.754;19.088;2023-04-07T04:30:21;3.65;;;2.10;;
78563;SDS011;67856;47.754;19.088;2023-04-07T04:33:30;2.47;;;1.90;;
78563;SDS011;67856;47.754;19.088;2023-04-07T04:36:33;2.80;;;1.90;;
78563;SDS011;67856;47.754;19.088;2023-04-07T04:39:39;3.28;;;2.03;;
78563;SDS011;67856;47.754;19.088;2023-04-07T04:42:45;2.75;;;1.90;;
78563;SDS011;67856;47.754;19.088;2023-04-07T04:45:48;2.42;;;1.80;;
78563;SDS011;67856;47.754;19.088;2023-04-07T04:48:53;3.03;;;2.17;;
78563;SDS011;67856;47.754;19.088;2023-04-07T04:51:58;3.00;;;2.10;;
78563;SDS011;67856;47.754;19.088;2023-04-07T04:55:01;2.53;;;1.80;;
78563;SDS011;67856;47.754;19.088;2023-04-07T04:58:03;2.60;;;1.73;;
78563;SDS011;67856;47.754;19.088;2023-04-07T05:01:19;3.05;;;1.90;;
78563;SDS011;67856;47.754;19.088;2023-04-07T05:04:27;2.47;;;1.80;;
78563;SDS011;67856;47.754;19.088;2023-04-07T05:07:49;2.40;;;1.90;;
78563;SDS011;67856;47.754;19.088;2023-04-07T05:10:52;2.45;;;1.90;;
78563;SDS011;67856;47.754;19.088;2023-04-07T05:13:59;2.58;;;1.92;;
78563;SDS011;67856;47.754;19.088;2023-04-07T05:17:01;2.65;;;2.00;;
78563;SDS011;67856;47.754;19.088;2023-04-07T05:20:04;2.80;;;1.90;;
78563;SDS011;67856;47.754;19.088;2023-04-07T05:23:10;2.90;;;2.03;;
78563;SDS011;67856;47.754;19.088;2023-04-07T05:26:14;2.33;;;1.80;;
78563;SDS011;67856;47.754;19.088;2023-04-07T05:29:17;2.35;;;1.75;;
78563;SDS011;67856;47.754;19.088;2023-04-07T05:32:20;2.95;;;2.10;;
78563;SDS011;67856;47.754;19.088;2023-04-07T05:35:22;3.83;;;1.80;;
78563;SDS011;67856;47.754;19.088;2023-04-07T05:38:29;2.07;;;1.60;;
78563;SDS011;67856;47.754;19.088;2023-04-07T05:41:37;2.67;;;1.70;;
78563;SDS011;67856;47.754;19.088;2023-04-07T05:44:40;2.20;;;1.80;;
78563;SDS011;67856;47.754;19.088;2023-04-07T05:47:42;2.55;;;1.90;;
78563;SDS011;67856;47.754;19.088;2023-04-07T05:50:45;2.03;;;1.77;;
78563;SDS011;67856;47.754;19.088;2023-04-07T05:53:51;2.83;;;2.00;;
78563;SDS011;67856;47.754;19.088;2023-04-07T05:56:56;1.92;;;1.70;;
78563;SDS011;67856;47.754;19.088;2023-04-07T06:00:01;2.63;;;1.90;;
78563;SDS011;67856;47.754;19.088;2023-04-07T06:03:15;2.10;;;1.67;;
78563;SDS011;67856;47.754;19.088;2023-04-07T06:06:43;2.63;;;1.90;;
78563;SDS011;67856;47.754;19.088;2023-04-07T06:09:46;2.00;;;1.70;;
78563;SDS011;67856;47.754;19.088;2023-04-07T06:12:49;2.17;;;1.80;;
78563;SDS011;67856;47.754;19.088;2023-04-07T06:15:51;2.15;;;1.60;;
78563;SDS011;67856;47.754;19.088;2023-04-07T06:18:56;2.67;;;1.85;;
78563;SDS011;67856;47.754;19.088;2023-04-07T06:21:59;2.97;;;1.77;;
78563;SDS011;67856;47.754;19.088;2023-04-07T06:25:01;2.80;;;1.90;;
78563;SDS011;67856;47.754;19.088;2023-04-07T06:28:05;2.35;;;1.75;;
78563;SDS011;67856;47.754;19.088;2023-04-07T06:31:08;2.90;;;1.98;;
78563;SDS011;67856;47.754;19.088;2023-04-07T06:34:12;2.78;;;1.90;;
78563;SDS011;67856;47.754;19.088;2023-04-07T06:37:14;2.70;;;1.90;;
78563;SDS011;67856;47.754;19.088;2023-04-07T06:40:18;2.23;;;1.50;;
78563;SDS011;67856;47.754;19.088;2023-04-07T06:43:20;2.00;;;1.55;;
78563;SDS011;67856;47.754;19.088;2023-04-07T06:46:28;2.58;;;1.83;;
78563;SDS011;67856;47.754;19.088;2023-04-07T06:49:31;2.30;;;1.80;;
78563;SDS011;67856;47.754;19.088;2023-04-07T06:52:35;2.77;;;1.73;;
78563;SDS011;67856;47.754;19.088;2023-04-07T06:55:37;2.50;;;1.80;;
78563;SDS011;67856;47.754;19.088;2023-04-07T06:58:40;2.75;;;1.90;;
78563;SDS011;67856;47.754;19.088;2023-04-07T07:01:42;2.22;;;1.65;;
78563;SDS011;67856;47.754;19.088;2023-04-07T07:04:46;2.17;;;1.55;;
78563;SDS011;67856;47.754;19.088;2023-04-07T07:07:49;1.93;;;1.73;;
78563;SDS011;67856;47.754;19.088;2023-04-07T07:10:52;2.10;;;1.60;;
78563;SDS011;67856;47.754;19.088;2023-04-07T07:13:55;3.83;;;2.58;;
78563;SDS011;67856;47.754;19.088;2023-04-07T07:16:57;2.83;;;2.20;;
78563;SDS011;67856;47.754;19.088;2023-04-07T07:19:59;2.25;;;1.65;;
78563;SDS011;67856;47.754;19.088;2023-04-07T07:23:02;2.50;;;1.80;;
78563;SDS011;67856;47.754;19.088;2023-04-07T07:26:05;3.40;;;2.07;;
78563;SDS011;67856;47.754;19.088;2023-04-07T07:29:07;2.38;;;1.80;;
78563;SDS011;67856;47.754;19.088;2023-04-07T07:32:09;2.22;;;1.52;;
78563;SDS011;67856;47.754;19.088;2023-04-07T07:35:12;2.25;;;1.80;;
78563;SDS011;67856;47.754;19.088;2023-04-07T07:38:15;2.50;;;1.87;;
78563;SDS011;67856;47.754;19.088;2023-04-07T07:41:17;2.40;;;1.77;;
78563;SDS011;67856;47.754;19.088;2023-04-07T07:44:19;2.90;;;1.85;;
78563;SDS011;67856;47.754;19.088;2023-04-07T07:47:23;2.22;;;1.70;;
78563;SDS011;67856;47.754;19.088;2023-04-07T07:50:27;2.70;;;2.33;;
78563;SDS011;67856;47.754;19.088;2023-04-07T07:53:29;2.07;;;1.73;;
78563;SDS011;67856;47.754;19.088;2023-04-07T07:56:32;2.40;;;1.70;;
78563;SDS011;67856;47.754;19.088;2023-04-07T07:59:34;2.30;;;1.60;;
78563;SDS011;67856;47.754;19.088;2023-04-07T08:02:37;2.10;;;1.60;;
78563;SDS011;67856;47.754;19.088;2023-04-07T08:05:40;2.22;;;1.77;;
78563;SDS011;67856;47.754;19.088;2023-04-07T08:08:43;1.97;;;1.67;;
78563;SDS011;67856;47.754;19.088;2023-04-07T08:11:46;2.47;;;1.47;;
78563;SDS011;67856;47.754;19.088;2023-04-07T08:14:49;1.90;;;1.60;;
78563;SDS011;67856;47.754;19.088;2023-04-07T08:17:51;2.15;;;1.63;;
78563;SDS011;67856;47.754;19.088;2023-04-07T08:20:57;2.17;;;1.52;;
78563;SDS011;67856;47.754;19.088;2023-04-07T08:24:00;2.30;;;1.50;;
78563;SDS011;67856;47.754;19.088;2023-04-07T08:27:02;2.27;;;1.80;;
78563;SDS011;67856;47.754;19.088;2023-04-07T08:30:05;1.92;;;1.55;;
78563;SDS011;67856;47.754;19.088;2023-04-07T08:33:08;2.03;;;1.52;;
78563;SDS011;67856;47.754;19.088;2023-04-07T08:36:10;2.40;;;1.85;;
78563;SDS011;67856;47.754;19.088;2023-04-07T08:39:13;2.50;;;1.80;;
78563;SDS011;67856;47.754;19.088;2023-04-07T08:42:15;2.00;;;1.43;;
78563;SDS011;67856;47.754;19.088;2023-04-07T08:45:18;2.67;;;2.00;;
78563;SDS011;67856;47.754;19.088;2023-04-07T08:48:22;2.13;;;1.70;;
78563;SDS011;67856;47.754;19.088;2023-04-07T08:51:28;2.40;;;1.85;;
78563;SDS011;67856;47.754;19.088;2023-04-07T08:54:32;2.00;;;1.40;;
78563;SDS011;67856;47.754;19.088;2023-04-07T08:57:36;2.67;;;1.90;;
78563;SDS011;67856;47.754;19.088;2023-04-07T09:00:44;2.30;;;1.77;;
78563;SDS011;67856;47.754;19.088;2023-04-07T09:03:47;2.17;;;1.90;;
78563;SDS011;67856;47.754;19.088;2023-04-07T09:06:51;2.03;;;1.48;;
78563;SDS011;67856;47.754;19.088;2023-04-07T09:09:54;2.50;;;1.80;;
78563;SDS011;67856;47.754;19.088;2023-04-07T09:12:57;1.90;;;1.67;;
78563;SDS011;67856;47.754;19.088;2023-04-07T09:16:00;2.15;;;1.70;;
78563;SDS011;67856;47.754;19.088;2023-04-07T09:19:04;2.20;;;1.70;;
78563;SDS011;67856;47.754;19.088;2023-04-07T09:22:07;1.90;;;1.58;;
78563;SDS011;67856;47.754;19.088;2023-04-07T09:25:23;2.30;;;1.60;;
78563;SDS011;67856;47.754;19.088;2023-04-07T09:28:37;2.10;;;1.77;;
78563;SDS011;67856;47.754;19.088;2023-04-07T09:34:52;1.92;;;1.60;;
78563;SDS011;67856;47.754;19.088;2023-04-07T09:38:00;2.00;;;1.58;;
78563;SDS011;67856;47.754;19.088;2023-04-07T09:41:13;2.00;;;1.43;;
78563;SDS011;67856;47.754;19.088;2023-04-07T09:44:21;2.17;;;1.60;;
78563;SDS011;67856;47.754;19.088;2023-04-07T09:47:25;2.22;;;1.70;;
78563;SDS011;67856;47.754;19.088;2023-04-07T09:50:31;2.08;;;1.42;;
78563;SDS011;67856;47.754;19.088;2023-04-07T09:53:49;2.80;;;1.80;;
78563;SDS011;67856;47.754;19.088;2023-04-07T09:56:52;2.10;;;1.50;;
78563;SDS011;67856;47.754;19.088;2023-04-07T09:59:55;1.77;;;1.60;;
78563;SDS011;67856;47.754;19.088;2023-04-07T10:02:58;1.83;;;1.50;;
78563;SDS011;67856;47.754;19.088;2023-04-07T10:06:00;2.22;;;1.52;;
78563;SDS011;67856;47.754;19.088;2023-04-07T10:09:03;1.80;;;1.40;;
78563;SDS011;67856;47.754;19.088;2023-04-07T10:12:05;2.83;;;1.80;;
78563;SDS011;67856;47.754;19.088;2023-04-07T10:15:08;2.10;;;1.70;;
78563;SDS011;67856;47.754;19.088;2023-04-07T10:18:14;2.00;;;1.60;;
78563;SDS011;67856;47.754;19.088;2023-04-07T10:21:19;2.63;;;1.75;;
78563;SDS011;67856;47.754;19.088;2023-04-07T10:27:50;2.03;;;1.60;;
78563;SDS011;67856;47.754;19.088;2023-04-07T10:31:06;2.33;;;1.53;;
78563;SDS011;67856;47.754;19.088;2023-04-07T10:34:09;1.92;;;1.55;;
78563;SDS011;67856;47.754;19.088;2023-04-07T10:37:11;2.20;;;1.60;;
78563;SDS011;67856;47.754;19.088;2023-04-07T10:43:35;2.00;;;1.60;;
78563;SDS011;67856;47.754;19.088;2023-04-07T10:53:15;2.05;;;1.60;;
78563;SDS011;67856;47.754;19.088;2023-04-07T10:56:18;2.25;;;1.75;;
78563;SDS011;67856;47.754;19.088;2023-04-07T10:59:20;2.30;;;1.83;;
78563;SDS011;67856;47.754;19.088;2023-04-07T11:02:29;2.57;;;1.87;;
78563;SDS011;67856;47.754;19.088;2023-04-07T11:05:32;1.90;;;1.50;;
78563;SDS011;67856;47.754;19.088;2023-04-07T11:08:44;1.85;;;1.45;;
78563;SDS011;67856;47.754;19.088;2023-04-07T11:11:50;2.38;;;1.50;;
78563;SDS011;67856;47.754;19.088;2023-04-07T11:14:53;2.03;;;1.57;;
78563;SDS011;67856;47.754;19.088;2023-04-07T11:21:27;2.00;;;1.55;;
78563;SDS011;67856;47.754;19.088;2023-04-07T11:24:33;2.10;;;1.50;;
78563;SDS011;67856;47.754;19.088;2023-04-07T11:27:42;2.00;;;1.50;;
78563;SDS011;67856;47.754;19.088;2023-04-07T11:30:47;2.20;;;1.80;;
78563;SDS011;67856;47.754;19.088;2023-04-07T11:33:53;2.50;;;1.97;;
78563;SDS011;67856;47.754;19.088;2023-04-07T11:37:19;2.42;;;1.60;;
78563;SDS011;67856;47.754;19.088;2023-04-07T11:40:33;2.10;;;1.70;;
78563;SDS011;67856;47.754;19.088;2023-04-07T11:43:37;1.73;;;1.50;;
78563;SDS011;67856;47.754;19.088;2023-04-07T11:46:56;1.60;;;1.37;;
78563;SDS011;67856;47.754;19.088;2023-04-07T11:50:05;1.60;;;1.33;;
78563;SDS011;67856;47.754;19.088;2023-04-07T11:53:08;2.03;;;1.60;;
78563;SDS011;67856;47.754;19.088;2023-04-07T11:56:12;2.17;;;1.65;;
78563;SDS011;67856;47.754;19.088;2023-04-07T11:59:19;2.08;;;1.52;;
78563;SDS011;67856;47.754;19.088;2023-04-07T12:02:34;2.67;;;1.40;;
78563;SDS011;67856;47.754;19.088;2023-04-07T12:05:41;1.57;;;1.27;;
78563;SDS011;67856;47.754;19.088;2023-04-07T12:08:46;1.70;;;1.30;;
78563;SDS011;67856;47.754;19.088;2023-04-07T12:11:48;1.80;;;1.40;;
78563;SDS011;67856;47.754;19.088;2023-04-07T12:14:51;1.67;;;1.40;;
78563;SDS011;67856;47.754;19.088;2023-04-07T12:17:53;2.10;;;1.43;;
78563;SDS011;67856;47.754;19.088;2023-04-07T12:20:56;1.67;;;1.40;;
78563;SDS011;67856;47.754;19.088;2023-04-07T12:24:00;1.90;;;1.50;;
78563;SDS011;67856;47.754;19.088;2023-04-07T12:27:03;1.80;;;1.50;;
78563;SDS011;67856;47.754;19.088;2023-04-07T12:30:05;1.50;;;1.40;;
78563;SDS011;67856;47.754;19.088;2023-04-07T12:33:08;2.10;;;1.70;;
78563;SDS011;67856;47.754;19.088;2023-04-07T12:36:10;2.00;;;1.50;;
78563;SDS011;67856;47.754;19.088;2023-04-07T12:39:13;1.85;;;1.52;;
78563;SDS011;67856;47.754;19.088;2023-04-07T12:42:16;1.98;;;1.55;;
78563;SDS011;67856;47.754;19.088;2023-04-07T12:45:18;5.70;;;3.65;;
78563;SDS011;67856;47.754;19.088;2023-04-07T12:48:21;3.00;;;2.17;;
78563;SDS011;67856;47.754;19.088;2023-04-07T12:51:24;2.33;;;1.70;;
78563;SDS011;67856;47.754;19.088;2023-04-07T12:54:27;3.15;;;2.28;;
78563;SDS011;67856;47.754;19.088;2023-04-07T12:57:29;2.00;;;1.50;;
78563;SDS011;67856;47.754;19.088;2023-04-07T13:00:32;2.25;;;1.60;;
78563;SDS011;67856;47.754;19.088;2023-04-07T13:03:34;2.53;;;1.63;;
78563;SDS011;67856;47.754;19.088;2023-04-07T13:06:37;2.60;;;1.80;;
78563;SDS011;67856;47.754;19.088;2023-04-07T13:09:40;2.22;;;1.73;;
78563;SDS011;67856;47.754;19.088;2023-04-07T13:12:45;2.08;;;1.40;;
78563;SDS011;67856;47.754;19.088;2023-04-07T13:15:48;2.55;;;1.90;;
78563;SDS011;67856;47.754;19.088;2023-04-07T13:18:50;2.40;;;1.80;;
78563;SDS011;67856;47.754;19.088;2023-04-07T13:21:53;2.20;;;1.70;;
78563;SDS011;67856;47.754;19.088;2023-04-07T13:24:55;2.95;;;1.90;;
78563;SDS011;67856;47.754;19.088;2023-04-07T13:27:58;1.98;;;1.70;;
78563;SDS011;67856;47.754;19.088;2023-04-07T13:31:00;2.55;;;1.80;;
78563;SDS011;67856;47.754;19.088;2023-04-07T13:34:03;2.30;;;1.80;;
78563;SDS011;67856;47.754;19.088;2023-04-07T13:37:05;2.00;;;1.60;;
78563;SDS011;67856;47.754;19.088;2023-04-07T13:40:08;2.25;;;1.70;;
78563;SDS011;67856;47.754;19.088;2023-04-07T13:43:11;2.10;;;1.30;;
78563;SDS011;67856;47.754;19.088;2023-04-07T13:46:13;1.98;;;1.30;;
78563;SDS011;67856;47.754;19.088;2023-04-07T13:49:29;2.43;;;1.67;;
78563;SDS011;67856;47.754;19.088;2023-04-07T13:52:31;2.00;;;1.60;;
78563;SDS011;67856;47.754;19.088;2023-04-07T13:55:36;2.13;;;1.60;;
78563;SDS011;67856;47.754;19.088;2023-04-07T13:58:39;2.13;;;1.30;;
78563;SDS011;67856;47.754;19.088;2023-04-07T14:01:42;2.00;;;1.40;;
78563;SDS011;67856;47.754;19.088;2023-04-07T14:04:44;1.83;;;1.37;;
78563;SDS011;67856;47.754;19.088;2023-04-07T14:07:47;2.33;;;1.60;;
78563;SDS011;67856;47.754;19.088;2023-04-07T14:10:50;1.70;;;1.55;;
78563;SDS011;67856;47.754;19.088;2023-04-07T14:13:53;1.60;;;1.50;;
78563;SDS011;67856;47.754;19.088;2023-04-07T14:16:58;2.13;;;1.40;;
78563;SDS011;67856;47.754;19.088;2023-04-07T14:20:01;2.40;;;1.67;;
78563;SDS011;67856;47.754;19.088;2023-04-07T14:23:03;2.00;;;1.50;;
78563;SDS011;67856;47.754;19.088;2023-04-07T14:26:08;2.00;;;1.45;;
78563;SDS011;67856;47.754;19.088;2023-04-07T14:29:11;1.60;;;1.30;;
78563;SDS011;67856;47.754;19.088;2023-04-07T14:32:15;2.20;;;1.70;;
78563;SDS011;67856;47.754;19.088;2023-04-07T14:35:18;1.70;;;1.30;;
78563;SDS011;67856;47.754;19.088;2023-04-07T14:38:20;1.70;;;1.50;;
78563;SDS011;67856;47.754;19.088;2023-04-07T14:41:26;2.38;;;1.63;;
78563;SDS011;67856;47.754;19.088;2023-04-07T14:44:29;2.38;;;1.83;;
78563;SDS011;67856;47.754;19.088;2023-04-07T14:47:32;2.00;;;1.70;;
78563;SDS011;67856;47.754;19.088;2023-04-07T14:50:35;2.07;;;1.47;;
78563;SDS011;67856;47.754;19.088;2023-04-07T14:53:37;2.47;;;1.70;;
78563;SDS011;67856;47.754;19.088;2023-04-07T14:56:40;2.17;;;1.52;;
78563;SDS011;67856;47.754;19.088;2023-04-07T14:59:43;2.40;;;1.90;;
78563;SDS011;67856;47.754;19.088;2023-04-07T15:02:45;2.53;;;1.90;;
78563;SDS011;67856;47.754;19.088;2023-04-07T15:05:48;2.80;;;2.30;;
78563;SDS011;67856;47.754;19.088;2023-04-07T15:08:50;2.87;;;2.10;;
78563;SDS011;67856;47.754;19.088;2023-04-07T15:11:53;2.03;;;1.55;;
78563;SDS011;67856;47.754;19.088;2023-04-07T15:14:57;2.42;;;1.75;;
78563;SDS011;67856;47.754;19.088;2023-04-07T15:17:59;2.42;;;1.73;;
78563;SDS011;67856;47.754;19.088;2023-04-07T15:21:02;2.93;;;2.10;;
78563;SDS011;67856;47.754;19.088;2023-04-07T15:24:04;2.50;;;1.83;;
78563;SDS011;67856;47.754;19.088;2023-04-07T15:27:06;2.90;;;2.38;;
78563;SDS011;67856;47.754;19.088;2023-04-07T15:30:09;3.88;;;2.30;;
78563;SDS011;67856;47.754;19.088;2023-04-07T15:33:12;3.17;;;2.33;;
78563;SDS011;67856;47.754;19.088;2023-04-07T15:36:15;2.97;;;2.27;;
78563;SDS011;67856;47.754;19.088;2023-04-07T15:39:17;3.27;;;2.43;;
78563;SDS011;67856;47.754;19.088;2023-04-07T15:42:19;2.63;;;2.20;;
78563;SDS011;67856;47.754;19.088;2023-04-07T15:45:22;2.30;;;1.80;;
78563;SDS011;67856;47.754;19.088;2023-04-07T15:48:24;2.38;;;1.77;;
78563;SDS011;67856;47.754;19.088;2023-04-07T15:51:27;2.40;;;1.60;;
78563;SDS011;67856;47.754;19.088;2023-04-07T15:54:30;2.13;;;1.50;;
78563;SDS011;67856;47.754;19.088;2023-04-07T15:57:33;2.40;;;1.70;;
78563;SDS011;67856;47.754;19.088;2023-04-07T16:00:35;1.85;;;1.50;;
78563;SDS011;67856;47.754;19.088;2023-04-07T16:03:39;1.88;;;1.60;;
78563;SDS011;67856;47.754;19.088;2023-04-07T16:06:41;2.20;;;1.60;;
78563;SDS011;67856;47.754;19.088;2023-04-07T16:09:44;2.07;;;1.57;;
78563;SDS011;67856;47.754;19.088;2023-04-07T16:12:47;1.90;;;1.70;;
78563;SDS011;67856;47.754;19.088;2023-04-07T16:15:49;1.80;;;1.50;;
78563;SDS011;67856;47.754;19.088;2023-04-07T16:18:56;1.90;;;1.45;;
78563;SDS011;67856;47.754;19.088;2023-04-07T16:21:59;1.80;;;1.50;;
78563;SDS011;67856;47.754;19.088;2023-04-07T16:25:01;2.13;;;1.60;;
78563;SDS011;67856;47.754;19.088;2023-04-07T16:28:03;2.35;;;1.80;;
78563;SDS011;67856;47.754;19.088;2023-04-07T16:31:06;2.40;;;1.60;;
78563;SDS011;67856;47.754;19.088;2023-04-07T16:34:10;2.30;;;1.80;;
78563;SDS011;67856;47.754;19.088;2023-04-07T16:37:13;1.97;;;1.50;;
78563;SDS011;67856;47.754;19.088;2023-04-07T16:40:15;2.13;;;1.50;;
78563;SDS011;67856;47.754;19.088;2023-04-07T16:43:18;2.30;;;1.65;;
78563;SDS011;67856;47.754;19.088;2023-04-07T16:46:21;2.22;;;1.75;;
78563;SDS011;67856;47.754;19.088;2023-04-07T16:49:26;2.25;;;1.60;;
78563;SDS011;67856;47.754;19.088;2023-04-07T16:52:29;2.73;;;2.20;;
78563;SDS011;67856;47.754;19.088;2023-04-07T16:55:34;2.30;;;1.90;;
78563;SDS011;67856;47.754;19.088;2023-04-07T16:58:37;3.03;;;2.20;;
78563;SDS011;67856;47.754;19.088;2023-04-07T17:01:39;2.13;;;1.70;;
78563;SDS011;67856;47.754;19.088;2023-04-07T17:04:43;2.70;;;2.13;;
78563;SDS011;67856;47.754;19.088;2023-04-07T17:07:46;4.93;;;3.40;;
78563;SDS011;67856;47.754;19.088;2023-04-07T17:10:48;3.13;;;2.70;;
78563;SDS011;67856;47.754;19.088;2023-04-07T17:13:51;3.45;;;2.60;;
78563;SDS011;67856;47.754;19.088;2023-04-07T17:16:58;3.55;;;2.45;;
78563;SDS011;67856;47.754;19.088;2023-04-07T17:20:00;3.28;;;2.45;;
78563;SDS011;67856;47.754;19.088;2023-04-07T17:23:03;4.07;;;2.77;;
78563;SDS011;67856;47.754;19.088;2023-04-07T17:26:05;5.20;;;3.83;;
78563;SDS011;67856;47.754;19.088;2023-04-07T17:29:08;4.68;;;3.20;;
78563;SDS011;67856;47.754;19.088;2023-04-07T17:32:10;4.15;;;2.90;;
78563;SDS011;67856;47.754;19.088;2023-04-07T17:35:12;3.78;;;2.78;;
78563;SDS011;67856;47.754;19.088;2023-04-07T17:38:15;4.27;;;2.97;;
78563;SDS011;67856;47.754;19.088;2023-04-07T17:41:17;4.83;;;3.27;;
78563;SDS011;67856;47.754;19.088;2023-04-07T17:44:20;4.75;;;3.10;;
78563;SDS011;67856;47.754;19.088;2023-04-07T17:47:22;3.63;;;2.63;;
78563;SDS011;67856;47.754;19.088;2023-04-07T17:50:26;4.00;;;2.67;;
78563;SDS011;67856;47.754;19.088;2023-04-07T17:53:28;4.20;;;2.57;;
78563;SDS011;67856;47.754;19.088;2023-04-07T17:56:32;3.20;;;2.30;;
78563;SDS011;67856;47.754;19.088;2023-04-07T17:59:34;2.88;;;2.20;;
78563;SDS011;67856;47.754;19.088;2023-04-07T18:02:37;3.28;;;2.40;;
78563;SDS011;67856;47.754;19.088;2023-04-07T18:05:42;2.47;;;1.98;;
78563;SDS011;67856;47.754;19.088;2023-04-07T18:08:47;2.53;;;2.17;;
78563;SDS011;67856;47.754;19.088;2023-04-07T18:11:50;2.83;;;2.23;;
78563;SDS011;67856;47.754;19.088;2023-04-07T18:14:52;2.65;;;1.95;;
78563;SDS011;67856;47.754;19.088;2023-04-07T18:17:54;2.85;;;2.10;;
78563;SDS011;67856;47.754;19.088;2023-04-07T18:20:57;3.03;;;2.05;;
78563;SDS011;67856;47.754;19.088;2023-04-07T18:23:59;2.37;;;1.70;;
78563;SDS011;67856;47.754;19.088;2023-04-07T18:27:02;2.53;;;1.97;;
78563;SDS011;67856;47.754;19.088;2023-04-07T18:30:05;2.83;;;2.10;;
78563;SDS011;67856;47.754;19.088;2023-04-07T18:33:08;2.67;;;2.00;;
78563;SDS011;67856;47.754;19.088;2023-04-07T18:36:10;3.03;;;2.40;;
78563;SDS011;67856;47.754;19.088;2023-04-07T18:39:13;2.63;;;2.00;;